This demonstration page uses our WeatherBlox Daily Observations layout. Learn more.

Left ArrowRight Arrow

39.92423, -83.80882

Hourly Observations for July 19, 2022

Temp ( °F °C ) Dew Point ( °F °C ) Humidity (%) Winds ( mph kmh ) Pressure ( in mb ) Visibility ( mi km ) Precip ( " mm )
12:56 am 00:56 Mostly Clear 70 21 N/A N/A SSW 6 9 29.92 1013 10 16 0.00 0.00
1:56 am 01:56 Clear N/A N/A N/A SW 5 7 N/A 9 14 0.00 0.00
2:56 am 02:56 Clear N/A N/A N/A SW 5 7 N/A 7 11 0.00 0.00
3:56 am 03:56 Hazy N/A N/A N/A SW 5 7 N/A 5 8 0.00 0.00
4:56 am 04:56 Hazy N/A N/A N/A SW 6 9 N/A 5 8 0.00 0.00
5:56 am 05:56 Hazy N/A N/A N/A Calm N/A 4 6 0.00 0.00
6:12 am 06:12 Clear with Mist and Fog N/A N/A N/A Calm N/A 2 3 0.00 0.00
6:26 am 06:26 Sunny with Mist and Fog N/A N/A N/A Calm N/A 1 1 0.00 0.00
6:29 am 06:29 Mostly Cloudy with Fog N/A N/A N/A Calm N/A 1 1 0.00 0.00
6:32 am 06:32 Mostly Cloudy with Fog N/A N/A N/A Calm N/A 0 0 0.00 0.00
6:56 am 06:56 Mostly Cloudy with Fog N/A N/A N/A SW 5 7 N/A 0 0 0.00 0.00
7:04 am 07:04 Mostly Cloudy with Fog N/A N/A N/A Calm N/A 1 1 0.00 0.00
7:07 am 07:07 Mostly Cloudy with Mist and Fog N/A N/A N/A Calm N/A 1 2 0.00 0.00
7:11 am 07:11 Partly Cloudy with Mist and Fog N/A N/A N/A Calm N/A 2 3 0.00 0.00
7:20 am 07:20 Hazy N/A N/A N/A SSW 3 6 N/A 4 6 0.00 0.00
7:56 am 07:56 Hazy N/A N/A N/A Calm N/A 6 10 0.00 0.00
8:56 am 08:56 Sunny 73 23 N/A N/A SW 5 7 29.96 1014 7 11 0.00 0.00
9:56 am 09:56 Sunny 78 25.6 76 24.4 93 93 Calm 29.96 1014 10 16 0.00 0.00
10:53 am 10:53 Mostly Cloudy 81 27 72 22 74 74 VRB 5 7 29.92 1013 10 16 0.00 0.00
10:56 am 10:56 Mostly Cloudy 80 26.7 72 22.2 76 76 W 5 7 29.95 1014 10 16 0.00 0.00
11:56 am 11:56 Mostly Cloudy 81 27.2 72 22.2 74 74 VRB 6 9 29.95 1014 10 16 0.00 0.00
12:56 pm 12:56 Mostly Sunny 84 28.9 70 21.1 63 63 WNW 7 11 29.95 1014 10 16 0.00 0.00
1:56 pm 13:56 Partly Cloudy 84 28.9 71 21.7 65 65 SW 8 13 29.90 1013 10 16 0.00 0.00
2:56 pm 14:56 Mostly Sunny 85 29.4 69 20.6 59 59 SW 7 11 29.89 1012 10 16 0.00 0.00
3:56 pm 15:56 Mostly Sunny 84 28.9 70 21.1 63 63 S 5 7 29.87 1011 10 16 0.01 0.25
4:56 pm 16:56 Mostly Cloudy 83 28.3 73 22.8 72 72 SW 3 6 29.86 1011 10 16 0.00 0.00
5:56 pm 17:56 Mostly Cloudy 84 28.9 73 22.8 70 70 VRB 5 7 29.84 1010 10 16 0.00 0.00
6:56 pm 18:56 Partly Cloudy 82 27.8 74 23.3 77 77 S 6 9 29.83 1010 10 16 0.00 0.00
7:56 pm 19:56 Sunny 80 26.7 77 25 90 90 S 3 6 29.83 1010 10 16 0.02 0.51
8:56 pm 20:56 Mostly Sunny 77 25 77 25 100 100 S 6 9 29.86 1011 10 16 0.00 0.00
9:56 pm 21:56 Mostly Clear 76 24.4 76 24.4 100 100 S 6 9 29.87 1011 10 16 0.01 0.25
10:56 pm 22:56 Clear 75 23.9 75 23.9 100 100 S 5 7 29.88 1012 10 16 0.00 0.00
11:56 pm 23:56 Clear 73 23 N/A N/A S 5 7 29.88 1012 10 16 0.00 0.00

Powered by AerisWeather